Time;durP1;ratioP1;P1;durP2;ratioP2;P2;SDS_P1;SDS_P2;PMS_P1;PMS_P2;Temp;Humidity;BMP_temperature;BMP_pressure;BME280_temperature;BME280_humidity;BME280_pressure;Samples;Min_cycle;Max_cycle;Signal;HPM_P1;HPM_P2
2023/03/02 00:01:07;;;;;;;18.10;11.97;;;5.90;75.20;;;8.89;53.07;102692.84;4880717;29;20190;-60
2023/03/02 00:03:38;;;;;;;15.63;13.30;;;5.90;75.20;;;8.85;53.32;102684.38;4866811;29;20218;-57
2023/03/02 00:06:08;;;;;;;15.77;13.37;;;5.80;75.40;;;8.84;53.36;102690.56;4875278;29;20224;-56
2023/03/02 00:08:37;;;;;;;14.70;12.83;;;5.80;75.50;;;8.89;53.20;102682.34;4885758;29;20208;-56
2023/03/02 00:11:04;;;;;;;15.17;12.07;;;5.80;75.60;;;8.93;53.55;102678.53;4883604;29;20197;-58
2023/03/02 00:13:34;;;;;;;17.27;13.47;;;5.80;75.80;;;8.94;53.00;102685.44;4885636;29;20227;-59
2023/03/02 00:16:01;;;;;;;18.23;13.30;;;5.90;75.80;;;8.92;53.22;102682.09;4880330;29;20195;-58
2023/03/02 00:18:28;;;;;;;15.97;13.70;;;5.90;75.30;;;8.92;53.54;102676.84;4869115;29;20198;-58
2023/03/02 00:20:55;;;;;;;15.93;13.73;;;5.90;75.50;;;8.90;53.04;102673.50;4868376;29;20202;-58
2023/03/02 00:23:23;;;;;;;16.87;14.10;;;5.90;75.10;;;8.85;52.97;102673.03;4868348;29;20222;-60
2023/03/02 00:25:50;;;;;;;19.73;14.97;;;5.90;75.00;;;8.79;53.19;102671.69;4873911;29;20215;-58
2023/03/02 00:28:17;;;;;;;17.93;14.67;;;5.90;75.00;;;8.74;53.45;102678.25;4886442;29;20230;-57
2023/03/02 00:30:44;;;;;;;19.73;14.83;;;5.80;75.00;;;8.74;53.44;102673.00;4873253;29;20202;-58
2023/03/02 00:33:11;;;;;;;19.13;15.47;;;5.80;75.20;;;8.74;53.54;102673.00;4867923;29;20227;-59
2023/03/02 00:35:39;;;;;;;19.57;15.20;;;5.80;75.50;;;8.75;53.39;102670.25;4868846;29;20196;-59
2023/03/02 00:38:07;;;;;;;23.43;16.83;;;5.80;75.10;;;8.74;53.03;102662.50;4882111;29;20193;-56
2023/03/02 00:40:35;;;;;;;19.10;14.53;;;5.70;74.70;;;8.74;53.12;102665.13;4880771;29;20268;-58
2023/03/02 00:43:03;;;;;;;22.17;15.73;;;5.70;74.90;;;8.77;53.27;102670.16;4881098;29;20213;-55
2023/03/02 00:45:30;;;;;;;17.90;14.57;;;5.70;75.30;;;8.77;53.09;102657.03;4880746;29;20220;-58
2023/03/02 00:47:56;;;;;;;26.40;17.23;;;5.70;75.20;;;8.76;53.44;102664.06;4880638;29;20265;-57
2023/03/02 00:50:23;;;;;;;21.00;16.77;;;5.70;75.30;;;8.69;53.01;102665.47;4880582;29;20209;-59
2023/03/02 00:52:51;;;;;;;20.23;15.80;;;5.60;75.00;;;8.63;52.75;102659.81;4880553;29;20224;-57
2023/03/02 00:55:18;;;;;;;24.33;17.17;;;5.60;75.10;;;8.59;53.19;102659.22;4880567;29;20238;-60
2023/03/02 00:57:54;;;;;;;21.70;14.97;;;5.50;75.50;;;8.57;52.92;102662.91;4862459;29;20212;-56
2023/03/02 01:00:23;;;;;;;18.63;15.57;;;5.50;75.50;;;8.53;53.47;102653.59;4871121;29;20220;-58
2023/03/02 01:02:50;;;;;;;25.03;16.03;;;5.50;76.10;;;8.54;53.84;102657.88;4880444;29;20227;-58
2023/03/02 01:05:17;;;;;;;23.07;16.60;;;5.50;76.50;;;8.54;53.76;102655.25;4860608;29;20222;-60
2023/03/02 01:07:44;;;;;;;20.67;15.53;;;5.50;76.30;;;8.49;53.63;102652.97;4862077;29;20209;-56
2023/03/02 01:10:12;;;;;;;19.67;15.67;;;5.50;75.70;;;8.48;53.67;102650.47;4869329;29;20227;-58
2023/03/02 01:12:39;;;;;;;27.47;16.50;;;5.50;75.70;;;8.52;53.68;102646.69;4880251;29;20221;-58
2023/03/02 01:15:09;;;;;;;21.13;15.07;;;5.60;75.70;;;8.55;53.43;102638.59;4880492;29;20203;-57
2023/03/02 01:17:38;;;;;;;21.90;15.10;;;5.50;75.70;;;8.54;53.52;102640.38;4862330;29;20202;-56
2023/03/02 01:20:07;;;;;;;21.30;14.97;;;5.50;75.70;;;8.52;53.57;102631.78;4862103;29;20202;-58
2023/03/02 01:22:34;;;;;;;20.27;15.23;;;5.50;75.80;;;8.49;53.42;102631.16;4860903;29;20222;-56
2023/03/02 01:25:02;;;;;;;25.10;13.63;;;5.50;75.70;;;8.49;53.26;102637.25;4861755;29;20197;-57
2023/03/02 01:27:29;;;;;;;19.63;14.63;;;5.50;75.40;;;8.49;53.53;102641.66;4877762;29;20202;-57
2023/03/02 01:29:56;;;;;;;20.60;15.80;;;5.40;75.60;;;8.51;53.48;102632.72;4880136;29;20209;-59
2023/03/02 01:32:24;;;;;;;20.53;15.03;;;5.50;76.10;;;8.56;53.56;102635.84;4879801;29;20207;-54
2023/03/02 01:34:51;;;;;;;18.63;14.30;;;5.50;76.00;;;8.58;53.26;102635.75;4880158;29;20651;-58
2023/03/02 01:37:19;;;;;;;20.13;15.20;;;5.50;75.80;;;8.59;53.36;102635.63;4868162;29;20523;-57
2023/03/02 01:39:46;;;;;;;19.70;14.40;;;5.50;75.70;;;8.51;52.56;102624.03;4879574;29;20617;-57
2023/03/02 01:42:13;;;;;;;20.87;14.27;;;5.50;74.80;;;8.39;53.28;102624.94;4879629;29;20603;-56
2023/03/02 01:44:44;;;;;;;19.83;15.10;;;5.50;74.80;;;8.26;53.24;102630.25;4880151;29;20223;-58
2023/03/02 01:47:16;;;;;;;20.33;15.07;;;5.40;74.70;;;8.15;53.93;102630.16;4870581;29;20221;-56
2023/03/02 01:49:51;;;;;;;18.53;14.63;;;5.30;75.40;;;8.12;53.99;102627.75;4879473;29;20216;-58
2023/03/02 01:52:19;;;;;;;22.93;16.10;;;5.20;75.90;;;8.15;54.21;102633.59;4879301;29;20562;-58
2023/03/02 01:54:49;;;;;;;19.27;14.63;;;5.20;76.30;;;8.18;54.18;102638.63;4879874;29;20227;-57
2023/03/02 01:57:21;;;;;;;18.53;15.13;;;5.20;76.40;;;8.15;54.30;102630.97;4874070;29;20284;-55
2023/03/02 01:59:58;;;;;;;19.80;14.40;;;5.20;76.60;;;8.18;54.29;102630.75;4861441;29;20183;-57
2023/03/02 02:02:26;;;;;;;22.10;15.77;;;5.20;76.80;;;8.23;54.03;102627.81;4861051;29;20277;-55
2023/03/02 02:04:56;;;;;;;23.13;16.47;;;5.20;76.70;;;8.25;54.83;102627.72;4870907;29;20201;-57
2023/03/02 02:07:23;;;;;;;17.73;13.87;;;5.20;77.50;;;8.31;54.40;102632.53;4873907;29;20222;-59
2023/03/02 02:09:53;;;;;;;16.07;13.70;;;5.30;76.70;;;8.26;53.48;102621.50;4861326;29;20202;-58
2023/03/02 02:12:22;;;;;;;19.60;14.73;;;5.30;75.30;;;8.17;53.64;102626.50;4860808;29;20207;-58
2023/03/02 02:14:50;;;;;;;20.90;13.63;;;5.30;75.10;;;8.08;53.48;102621.88;4861113;29;20200;-56
2023/03/02 02:17:18;;;;;;;18.27;13.57;;;5.20;74.90;;;7.97;53.85;102611.34;4861345;29;20495;-56
2023/03/02 02:20:05;;;;;;;17.57;13.33;;;5.20;75.10;;;7.86;53.75;102619.16;4861370;29;20197;-59
2023/03/02 02:22:48;;;;;;;20.47;14.97;;;5.10;75.40;;;7.82;54.89;102617.69;4860548;29;20215;-58
2023/03/02 02:25:33;;;;;;;18.63;13.97;;;5.00;76.30;;;7.88;54.94;102619.91;4861516;29;20194;-58
2023/03/02 02:28:07;;;;;;;20.10;14.13;;;5.00;76.80;;;7.96;54.49;102617.53;4871474;29;20305;-55
2023/03/02 02:30:36;;;;;;;19.13;13.73;;;5.00;77.00;;;8.03;54.72;102613.50;4879627;29;20212;-58
2023/03/02 02:33:05;;;;;;;18.87;13.07;;;5.00;77.00;;;8.08;53.99;102613.22;4879241;29;20208;-58
2023/03/02 02:35:37;;;;;;;19.37;14.40;;;5.00;76.00;;;8.07;54.00;102609.75;4877246;29;20205;-58
2023/03/02 02:38:07;;;;;;;17.40;13.17;;;5.00;76.50;;;8.11;54.04;102613.81;4873659;29;20211;-56
2023/03/02 02:40:45;;;;;;;16.93;13.17;;;5.10;76.80;;;8.06;53.84;102597.56;4882878;29;20574;-58
2023/03/02 02:43:18;;;;;;;17.90;13.53;;;5.10;76.10;;;8.03;53.81;102607.47;4882447;29;20240;-58
2023/03/02 02:45:49;;;;;;;19.20;14.67;;;5.10;76.10;;;8.00;53.72;102613.75;4874691;29;20214;-55
2023/03/02 02:48:22;;;;;;;18.07;14.23;;;5.10;75.60;;;7.96;53.83;102617.53;4882412;29;20197;-57
2023/03/02 02:50:58;;;;;;;21.40;13.63;;;5.10;75.70;;;7.82;53.12;102614.25;4882549;29;20199;-57
2023/03/02 02:53:33;;;;;;;18.27;13.93;;;5.00;74.30;;;7.65;53.97;102612.84;4882068;29;20225;-57
2023/03/02 02:56:03;;;;;;;20.20;14.13;;;4.90;74.50;;;7.52;54.13;102622.50;4881193;29;20284;-58
2023/03/02 02:58:38;;;;;;;21.97;13.60;;;4.80;75.30;;;7.45;53.78;102629.13;4882902;29;20254;-57
2023/03/02 03:01:06;;;;;;;16.23;13.10;;;4.70;75.40;;;7.33;54.26;102629.97;4882765;29;20665;-59
2023/03/02 03:03:38;;;;;;;18.40;13.13;;;4.60;75.30;;;7.29;55.16;102628.53;4882272;29;20221;-55
2023/03/02 03:06:08;;;;;;;17.90;14.07;;;4.50;75.70;;;7.26;55.16;102626.09;4872413;29;20232;-56
2023/03/02 03:08:56;;;;;;;18.07;13.70;;;4.50;76.60;;;7.25;55.37;102627.06;4871343;29;20267;-58
2023/03/02 03:11:27;;;;;;;16.77;12.90;;;4.50;76.80;;;7.23;55.31;102627.16;4883579;29;20191;-60
2023/03/02 03:14:07;;;;;;;16.63;12.60;;;4.40;76.50;;;7.12;54.41;102631.47;4883648;29;20215;-58
2023/03/02 03:16:38;;;;;;;18.00;13.70;;;4.30;76.10;;;7.08;55.30;102630.00;4867542;29;20697;-57
2023/03/02 03:19:14;;;;;;;19.47;13.63;;;4.30;76.70;;;7.01;55.33;102620.91;4863500;29;20635;-57
2023/03/02 03:21:41;;;;;;;18.70;13.93;;;4.30;76.60;;;7.00;55.41;102613.97;4863793;29;20199;-56
2023/03/02 03:24:09;;;;;;;22.87;14.23;;;4.20;77.10;;;7.03;55.66;102614.63;4863345;29;20762;-57
2023/03/02 03:26:36;;;;;;;18.03;12.77;;;4.20;77.40;;;7.00;55.18;102616.59;4864451;29;20212;-59
2023/03/02 03:29:05;;;;;;;17.47;13.40;;;4.20;76.70;;;6.95;56.07;102613.44;4863502;29;20188;-56
2023/03/02 03:31:32;;;;;;;19.17;13.70;;;4.10;77.20;;;6.99;56.64;102622.78;4863318;29;20201;-55
2023/03/02 03:34:00;;;;;;;16.63;12.60;;;4.10;78.20;;;7.09;55.61;102615.97;4870997;29;20221;-57
2023/03/02 03:36:29;;;;;;;20.03;13.10;;;4.20;78.30;;;7.18;55.81;102610.94;4877831;29;20197;-57
2023/03/02 03:38:58;;;;;;;19.23;12.73;;;4.20;78.00;;;7.30;55.10;102611.84;4863996;29;20221;-61
2023/03/02 03:41:25;;;;;;;17.37;14.03;;;4.30;78.00;;;7.41;55.30;102619.81;4863286;29;20194;-57
2023/03/02 03:43:52;;;;;;;19.27;14.13;;;4.30;78.40;;;7.47;54.76;102612.34;4862892;29;20244;-58
2023/03/02 03:46:21;;;;;;;17.60;13.20;;;4.40;77.50;;;7.45;54.22;102605.56;4877489;29;20217;-58
2023/03/02 03:48:48;;;;;;;21.30;13.50;;;4.50;76.60;;;7.32;54.30;102607.38;4882297;29;20252;-58
2023/03/02 03:51:16;;;;;;;20.67;11.83;;;4.50;75.70;;;7.13;54.77;102614.81;4882198;29;20666;-56
2023/03/02 03:53:43;;;;;;;19.40;13.80;;;4.40;75.80;;;6.98;54.78;102602.78;4881131;29;20217;-58
2023/03/02 03:56:11;;;;;;;19.63;14.40;;;4.30;75.60;;;6.87;55.81;102597.44;4879305;29;20257;-56
2023/03/02 03:58:38;;;;;;;19.93;14.33;;;4.20;76.70;;;6.82;56.02;102600.38;4867475;29;20197;-58
2023/03/02 04:01:05;;;;;;;18.73;13.97;;;4.10;76.80;;;6.81;55.78;102599.53;4881568;29;20272;-58
2023/03/02 04:03:33;;;;;;;19.30;13.80;;;4.10;77.20;;;6.87;56.16;102607.91;4881364;29;20741;-58
2023/03/02 04:06:00;;;;;;;16.87;12.83;;;4.10;78.20;;;6.98;56.13;102610.63;4873565;29;20216;-58
2023/03/02 04:08:27;;;;;;;21.73;14.57;;;4.10;78.90;;;7.10;56.79;102609.78;4863241;29;20722;-58
2023/03/02 04:10:54;;;;;;;19.07;14.57;;;4.20;79.20;;;7.22;56.20;102608.94;4862870;29;20242;-57
2023/03/02 04:13:21;;;;;;;16.07;12.33;;;4.30;78.70;;;7.35;55.60;102613.22;4862784;29;20237;-58
2023/03/02 04:15:48;;;;;;;21.37;13.70;;;4.40;78.30;;;7.45;55.07;102605.56;4862777;29;20198;-57
2023/03/02 04:18:15;;;;;;;22.27;14.83;;;4.40;77.80;;;7.50;54.74;102616.53;4862463;29;20204;-58
2023/03/02 04:20:43;;;;;;;19.33;14.13;;;4.50;77.80;;;7.58;55.16;102613.38;4862175;29;20197;-56
2023/03/02 04:23:11;;;;;;;18.30;13.83;;;4.50;77.70;;;7.64;54.41;102613.78;4862602;29;20293;-58
2023/03/02 04:25:38;;;;;;;18.73;13.20;;;4.60;77.30;;;7.70;54.39;102615.94;4867165;29;20251;-58
2023/03/02 04:28:05;;;;;;;18.67;13.13;;;4.60;77.00;;;7.74;54.18;102621.81;4881618;29;20213;-56
2023/03/02 04:30:32;;;;;;;18.53;12.80;;;4.70;77.00;;;7.77;54.60;102614.59;4879099;29;20208;-56
2023/03/02 04:32:59;;;;;;;20.30;13.60;;;4.70;76.80;;;7.80;54.21;102614.34;4880704;29;20233;-57
2023/03/02 04:35:26;;;;;;;18.20;13.47;;;4.70;76.70;;;7.86;54.65;102619.16;4880364;29;20200;-59
2023/03/02 04:37:55;;;;;;;24.80;15.07;;;4.80;76.90;;;7.90;54.05;102612.75;4881310;29;20238;-58
2023/03/02 04:40:22;;;;;;;22.13;15.43;;;4.80;76.50;;;7.90;54.10;102619.78;4880822;29;20678;-58
2023/03/02 04:42:49;;;;;;;18.60;14.47;;;4.90;76.50;;;7.91;53.92;102617.06;4880680;29;20229;-57
2023/03/02 04:45:16;;;;;;;16.20;12.40;;;4.90;76.00;;;7.91;53.70;102609.19;4879639;29;20200;-58
2023/03/02 04:47:43;;;;;;;16.80;13.23;;;4.90;75.90;;;7.89;53.78;102615.50;4863979;29;20221;-57
2023/03/02 04:50:13;;;;;;;19.03;14.17;;;4.90;76.00;;;7.85;53.62;102612.25;4880850;29;20289;-55
2023/03/02 04:52:41;;;;;;;18.10;13.97;;;4.90;76.00;;;7.87;54.14;102615.59;4880867;29;20678;-58
2023/03/02 04:55:18;;;;;;;20.20;14.83;;;4.90;76.10;;;7.88;54.30;102609.41;4880342;29;20846;-58
2023/03/02 04:57:45;;;;;;;20.23;13.80;;;4.90;76.30;;;7.89;53.45;102616.31;4861791;29;20263;-59
2023/03/02 05:00:15;;;;;;;27.83;13.40;;;4.90;75.70;;;7.74;53.51;102611.34;4861656;29;20212;-57
2023/03/02 05:02:42;;;;;;;18.10;12.67;;;4.90;74.90;;;7.60;53.60;102614.13;4862965;29;20299;-58
2023/03/02 05:05:16;;;;;;;21.87;13.17;;;4.80;75.10;;;7.44;54.01;102604.69;4879802;29;20204;-59
2023/03/02 05:07:44;;;;;;;19.63;13.00;;;4.70;75.60;;;7.28;54.99;102604.13;4846026;29;20210;-57
2023/03/02 05:10:14;;;;;;;19.00;13.10;;;4.60;75.60;;;7.13;55.26;102614.81;4861206;29;20218;-57
2023/03/02 05:12:54;;;;;;;18.53;13.10;;;4.50;76.10;;;7.14;55.38;102608.63;4861070;29;20230;-56
2023/03/02 05:15:22;;;;;;;18.87;13.53;;;4.40;77.10;;;7.20;55.31;102605.59;4862791;29;20224;-58
2023/03/02 05:17:49;;;;;;;17.07;12.60;;;4.40;77.90;;;7.22;55.26;102604.56;4880328;29;20543;-55
2023/03/02 05:20:18;;;;;;;18.27;13.30;;;4.40;77.70;;;7.24;56.04;102613.13;4869437;29;20193;-57
2023/03/02 05:22:45;;;;;;;17.77;12.13;;;4.40;78.10;;;7.26;55.10;102613.00;4861355;29;20214;-57
2023/03/02 05:25:13;;;;;;;19.33;13.00;;;4.40;77.70;;;7.24;55.49;102609.66;4861844;29;20209;-57
2023/03/02 05:27:40;;;;;;;21.47;13.77;;;4.40;77.30;;;7.21;55.47;102610.72;4879302;29;20228;-58
2023/03/02 05:30:09;;;;;;;22.30;14.33;;;4.40;77.80;;;7.27;55.95;102614.69;4880284;29;20204;-58
2023/03/02 05:32:36;;;;;;;19.63;13.33;;;4.40;78.40;;;7.35;56.16;102612.38;4879597;29;20200;-56
2023/03/02 05:35:04;;;;;;;19.23;12.90;;;4.40;78.70;;;7.46;55.94;102612.47;4871809;29;20216;-56
2023/03/02 05:37:32;;;;;;;19.87;12.87;;;4.40;78.50;;;7.55;55.55;102617.06;4861155;29;20694;-57
2023/03/02 05:39:59;;;;;;;20.57;13.47;;;4.50;78.40;;;7.66;55.18;102626.75;4861632;29;20284;-57
2023/03/02 05:42:27;;;;;;;19.37;12.77;;;4.60;78.30;;;7.73;54.31;102626.22;4861244;29;20203;-58
2023/03/02 05:44:54;;;;;;;19.80;12.00;;;4.70;77.80;;;7.74;54.38;102627.91;4865512;29;20200;-56
2023/03/02 05:47:21;;;;;;;15.13;11.60;;;4.70;77.00;;;7.71;54.36;102620.25;4879862;29;20225;-58
2023/03/02 05:49:48;;;;;;;18.67;12.13;;;4.70;76.50;;;7.67;54.27;102621.44;4879098;29;20570;-55
2023/03/02 05:52:15;;;;;;;23.13;14.27;;;4.70;76.50;;;7.59;54.68;102623.75;4879803;29;20257;-57
2023/03/02 05:54:42;;;;;;;17.00;13.17;;;4.70;76.40;;;7.55;54.93;102622.31;4879515;29;20259;-58
2023/03/02 05:57:09;;;;;;;16.03;12.03;;;4.70;77.00;;;7.53;54.29;102626.81;4871249;29;20574;-58
2023/03/02 05:59:37;;;;;;;19.70;13.73;;;4.60;76.60;;;7.50;54.77;102621.78;4879408;29;20742;-57
2023/03/02 06:02:04;;;;;;;16.83;12.50;;;4.60;77.60;;;7.47;54.77;102624.59;4879590;29;20206;-55
2023/03/02 06:04:31;;;;;;;21.30;13.17;;;4.60;77.00;;;7.42;54.92;102624.09;4878159;29;20792;-59
2023/03/02 06:06:58;;;;;;;16.00;12.00;;;4.50;76.90;;;7.37;54.79;102623.56;4873953;29;20217;-58
2023/03/02 06:09:26;;;;;;;18.07;12.83;;;4.50;77.40;;;7.36;55.48;102627.16;4881078;29;20216;-59
2023/03/02 06:11:53;;;;;;;18.63;12.80;;;4.50;77.50;;;7.38;55.19;102625.25;4880262;29;20200;-58
2023/03/02 06:14:20;;;;;;;18.87;12.57;;;4.50;77.90;;;7.38;55.37;102628.72;4883835;29;20220;-58
2023/03/02 06:16:48;;;;;;;18.00;12.60;;;4.50;77.50;;;7.42;55.00;102622.31;4872291;29;20205;-58
2023/03/02 06:19:15;;;;;;;21.17;13.93;;;4.50;77.80;;;7.42;55.20;102629.31;4870876;29;20275;-57
2023/03/02 06:21:42;;;;;;;18.83;12.47;;;4.50;77.30;;;7.40;55.22;102623.38;4871484;29;20278;-57
2023/03/02 06:24:09;;;;;;;17.80;13.20;;;4.50;77.20;;;7.37;55.56;102618.34;4882507;29;20243;-57
2023/03/02 06:26:36;;;;;;;18.57;12.23;;;4.50;77.70;;;7.32;54.51;102620.47;4883250;29;20224;-57
2023/03/02 06:29:04;;;;;;;19.40;12.57;;;4.50;77.00;;;7.29;54.61;102625.91;4882996;29;20204;-57
2023/03/02 06:31:31;;;;;;;21.17;13.93;;;4.40;77.10;;;7.31;55.57;102624.84;4883374;29;20202;-58
2023/03/02 06:34:00;;;;;;;18.00;12.87;;;4.40;78.10;;;7.41;55.47;102630.28;4882786;29;20240;-58
2023/03/02 06:36:27;;;;;;;17.37;12.23;;;4.50;78.60;;;7.45;54.41;102639.59;4866338;29;20706;-60
2023/03/02 06:38:54;;;;;;;30.13;13.23;;;4.50;77.30;;;7.39;54.87;102637.44;4876292;29;20193;-58
2023/03/02 06:41:21;;;;;;;16.00;12.00;;;4.60;76.70;;;7.29;55.12;102632.00;4865066;29;20199;-59
2023/03/02 06:43:48;;;;;;;18.87;13.87;;;4.50;76.40;;;7.28;55.70;102632.06;4864638;29;20221;-58
2023/03/02 06:46:15;;;;;;;19.10;13.50;;;4.50;77.40;;;7.32;55.43;102636.19;4878558;29;20512;-58
2023/03/02 06:48:42;;;;;;;23.77;16.13;;;4.50;77.70;;;7.37;55.51;102641.91;4882457;29;20220;-59
2023/03/02 06:51:11;;;;;;;24.80;17.43;;;4.50;78.20;;;7.47;55.33;102643.78;4884034;29;20200;-58
2023/03/02 06:53:38;;;;;;;23.40;16.17;;;4.50;78.50;;;7.56;55.66;102638.84;4882885;29;20240;-59
2023/03/02 06:56:06;;;;;;;20.67;12.57;;;4.50;78.60;;;7.68;55.47;102641.44;4874876;29;20265;-57
2023/03/02 06:58:34;;;;;;;18.00;12.40;;;4.60;78.20;;;7.75;55.38;102639.22;4882939;29;20193;-60
2023/03/02 07:01:01;;;;;;;19.13;12.87;;;4.60;78.30;;;7.81;54.44;102644.03;4882647;29;20273;-60
2023/03/02 07:03:28;;;;;;;18.80;13.27;;;4.70;78.00;;;7.82;54.23;102638.66;4883789;29;20233;-58
2023/03/02 07:05:55;;;;;;;17.13;12.40;;;4.70;77.50;;;7.77;54.12;102637.34;4882282;29;20665;-60
2023/03/02 07:08:23;;;;;;;18.03;12.23;;;4.70;76.60;;;7.72;54.37;102634.19;4882522;29;20624;-58
2023/03/02 07:10:50;;;;;;;19.87;13.33;;;4.70;76.70;;;7.70;54.53;102631.66;4882311;29;20197;-58
2023/03/02 07:13:17;;;;;;;19.70;12.87;;;4.70;77.10;;;7.61;54.04;102624.47;4881867;29;20302;-58
2023/03/02 07:15:44;;;;;;;16.20;12.30;;;4.70;76.50;;;7.54;54.74;102620.59;4881666;29;20197;-59
2023/03/02 07:18:11;;;;;;;16.80;11.97;;;4.70;76.60;;;7.53;55.07;102623.34;4866377;29;20201;-57
2023/03/02 07:20:38;;;;;;;17.70;11.73;;;4.60;76.90;;;7.51;54.70;102618.22;4865378;29;20202;-57
2023/03/02 07:23:05;;;;;;;23.03;15.40;;;4.60;77.10;;;7.56;55.27;102613.47;4882238;29;20221;-57
2023/03/02 07:25:35;;;;;;;16.00;12.33;;;4.60;77.80;;;7.62;54.69;102618.28;4881880;29;20208;-56
2023/03/02 07:28:03;;;;;;;17.97;12.10;;;4.70;77.70;;;7.62;54.49;102618.28;4868858;29;20227;-57
2023/03/02 07:30:30;;;;;;;19.23;11.83;;;4.70;77.30;;;7.64;54.97;102611.16;4882470;29;20206;-61
2023/03/02 07:32:57;;;;;;;17.83;12.73;;;4.70;77.50;;;7.74;55.00;102614.81;4882232;29;20300;-56
2023/03/02 07:35:24;;;;;;;18.10;12.73;;;4.70;77.80;;;7.86;54.49;102621.78;4881838;29;20221;-58
2023/03/02 07:37:51;;;;;;;15.90;11.40;;;4.80;77.70;;;7.98;54.53;102620.91;4880597;29;20205;-57
2023/03/02 07:40:18;;;;;;;17.70;12.80;;;4.90;77.60;;;8.05;54.39;102621.28;4881626;29;20209;-57
2023/03/02 07:42:47;;;;;;;16.43;11.60;;;4.90;77.40;;;8.13;53.82;102619.78;4881586;29;20272;-60
2023/03/02 07:45:15;;;;;;;18.90;11.53;;;5.00;76.90;;;8.15;53.59;102612.63;4878280;29;20319;-57
2023/03/02 07:47:42;;;;;;;15.87;11.33;;;5.10;76.70;;;8.22;54.13;102617.44;4881464;29;20221;-56
2023/03/02 07:50:10;;;;;;;15.03;11.77;;;5.10;76.60;;;8.32;53.83;102608.78;4881818;29;20281;-56
2023/03/02 07:52:38;;;;;;;15.63;11.30;;;5.20;76.70;;;8.43;53.51;102611.47;4881265;29;20224;-59
2023/03/02 07:55:06;;;;;;;15.87;12.07;;;5.30;77.20;;;8.54;53.25;102613.28;4865114;29;20227;-60
2023/03/02 07:57:33;;;;;;;16.30;11.73;;;5.40;76.10;;;8.62;52.74;102605.69;4883745;29;20196;-58
2023/03/02 08:00:03;;;;;;;18.37;14.10;;;5.50;75.60;;;8.70;52.90;102613.81;4883357;29;20277;-57
2023/03/02 08:02:32;;;;;;;15.87;10.90;;;5.60;75.70;;;8.80;52.32;102609.53;4866068;29;20279;-57
2023/03/02 08:04:59;;;;;;;16.17;11.17;;;5.60;75.10;;;8.89;52.51;102611.44;4873557;29;20530;-56
2023/03/02 08:07:26;;;;;;;14.37;11.13;;;5.70;74.90;;;8.96;52.07;102610.03;4880769;29;20706;-56
2023/03/02 08:09:53;;;;;;;14.63;10.13;;;5.70;74.60;;;8.99;51.64;102609.78;4881357;29;20202;-57
2023/03/02 08:12:20;;;;;;;15.90;11.33;;;5.80;74.20;;;9.00;51.36;102616.72;4880347;29;20199;-59
2023/03/02 08:14:47;;;;;;;14.17;10.97;;;5.80;73.80;;;8.97;51.67;102611.69;4881052;29;20579;-59
2023/03/02 08:17:15;;;;;;;15.90;11.50;;;5.80;73.70;;;8.97;51.50;102614.31;4872972;29;20265;-58
2023/03/02 08:19:42;;;;;;;16.57;12.27;;;5.80;73.60;;;8.99;51.56;102615.03;4862399;29;20223;-56
2023/03/02 08:22:09;;;;;;;16.63;11.93;;;5.80;73.70;;;9.02;51.03;102609.56;4862517;29;20255;-58
2023/03/02 08:24:36;;;;;;;20.27;14.33;;;5.80;73.40;;;9.03;51.21;102606.00;4877725;29;20322;-57
2023/03/02 08:27:04;;;;;;;20.57;14.73;;;5.80;73.50;;;9.04;51.34;102607.66;4871616;29;20239;-57
2023/03/02 08:29:31;;;;;;;18.33;13.93;;;5.80;73.60;;;9.04;51.48;102604.19;4862197;29;20267;-59
2023/03/02 08:31:58;;;;;;;15.67;11.53;;;5.80;73.50;;;9.05;51.00;102601.44;4862315;29;20522;-57
2023/03/02 08:34:27;;;;;;;14.60;11.03;;;5.80;73.70;;;9.07;51.21;102602.16;4862591;29;20253;-57
2023/03/02 08:36:55;;;;;;;14.17;11.10;;;5.80;73.70;;;9.09;50.78;102600.25;4868684;29;20196;-58
2023/03/02 08:39:23;;;;;;;13.73;10.73;;;5.80;73.10;;;9.04;50.39;102602.41;4861204;29;20681;-58
2023/03/02 08:41:50;;;;;;;12.80;10.27;;;5.80;72.40;;;8.91;50.25;102593.81;4864683;29;20208;-57
2023/03/02 08:44:19;;;;;;;14.83;11.03;;;5.70;72.00;;;8.77;50.25;102599.28;4879496;29;20254;-56
2023/03/02 08:46:47;;;;;;;16.33;10.97;;;5.70;72.40;;;8.63;50.92;102602.09;4880319;29;20207;-57
2023/03/02 08:49:14;;;;;;;18.27;11.87;;;5.60;72.20;;;8.43;51.34;102600.13;4881073;29;20695;-57
2023/03/02 08:51:44;;;;;;;16.87;11.53;;;5.50;72.40;;;8.30;51.71;102599.34;4881652;29;20206;-60
2023/03/02 08:54:11;;;;;;;16.97;11.97;;;5.40;73.10;;;8.17;52.53;102595.03;4877148;29;20220;-56
2023/03/02 08:56:40;;;;;;;15.77;11.73;;;5.20;74.00;;;8.24;52.83;102600.63;4882546;29;20611;-56
2023/03/02 08:59:12;;;;;;;15.03;11.03;;;5.20;74.90;;;8.31;52.63;102595.81;4878347;29;20203;-59
2023/03/02 09:01:41;;;;;;;18.67;12.67;;;5.20;75.10;;;8.43;53.04;102600.13;4879324;29;20196;-57
2023/03/02 09:04:10;;;;;;;14.50;10.37;;;5.30;75.30;;;8.57;52.56;102592.91;4879546;29;20664;-58
2023/03/02 09:06:40;;;;;;;13.80;9.87;;;5.40;75.50;;;8.70;51.99;102587.56;4877432;29;20610;-57
2023/03/02 09:09:11;;;;;;;17.80;11.50;;;5.40;75.10;;;8.74;51.79;102581.13;4872973;29;20235;-56
2023/03/02 09:11:41;;;;;;;20.77;13.73;;;5.50;74.80;;;8.83;51.89;102578.63;4877805;29;20200;-55
2023/03/02 09:14:08;;;;;;;21.17;15.20;;;5.60;74.80;;;8.96;51.63;102582.94;4877905;29;20653;-57
2023/03/02 09:16:35;;;;;;;16.30;10.70;;;5.70;74.50;;;9.04;51.30;102586.63;4875674;29;20201;-58
2023/03/02 09:19:03;;;;;;;17.30;11.63;;;5.80;73.90;;;9.06;50.42;102576.84;4861842;29;20210;-58
2023/03/02 09:21:30;;;;;;;15.70;10.93;;;5.80;73.40;;;9.11;51.57;102577.31;4877128;29;20202;-57
2023/03/02 09:23:58;;;;;;;20.67;13.30;;;5.90;73.80;;;9.20;51.08;102571.34;4879502;29;20269;-55
2023/03/02 09:26:27;;;;;;;15.20;10.93;;;5.90;73.90;;;9.29;50.56;102570.66;4865222;29;20206;-56
2023/03/02 09:28:54;;;;;;;14.13;10.60;;;6.00;73.50;;;9.37;51.00;102573.50;4879329;29;20240;-55
2023/03/02 09:31:21;;;;;;;16.33;10.97;;;6.10;73.40;;;9.46;50.42;102575.38;4879576;29;20308;-58
2023/03/02 09:33:48;;;;;;;14.10;10.17;;;6.20;73.10;;;9.52;50.46;102571.44;4879157;29;20709;-58
2023/03/02 09:36:20;;;;;;;19.27;10.90;;;6.20;72.90;;;9.58;50.24;102575.38;4878164;29;20206;-59
2023/03/02 09:38:48;;;;;;;17.47;11.93;;;6.20;72.50;;;9.57;49.68;102579.81;4861439;29;20192;-58
2023/03/02 09:41:41;;;;;;;18.13;12.07;;;6.20;72.10;;;9.49;49.97;102576.94;4866607;29;20212;-58
2023/03/02 09:44:40;;;;;;;17.07;11.03;;;6.20;72.00;;;9.45;50.60;102576.34;4879181;29;20231;-57
2023/03/02 09:47:19;;;;;;;15.90;11.17;;;6.10;72.90;;;9.55;50.29;102577.28;4882274;29;20594;-59
2023/03/02 09:50:24;;;;;;;15.07;10.97;;;6.20;73.10;;;9.62;49.97;102576.81;4877070;29;20236;-58
2023/03/02 09:53:12;;;;;;;15.40;11.90;;;6.20;72.50;;;9.61;50.06;102572.50;4848859;29;20406;-58
2023/03/02 09:55:39;;;;;;;16.93;11.90;;;6.20;72.90;;;9.65;50.26;102571.31;4876195;29;20263;-56
2023/03/02 09:58:16;;;;;;;17.30;11.50;;;6.30;72.70;;;9.63;49.99;102578.47;4879920;29;20235;-58
2023/03/02 10:00:45;;;;;;;16.13;11.90;;;6.30;72.80;;;9.62;50.36;102580.28;4880669;29;20510;-57
2023/03/02 10:03:19;;;;;;;22.20;15.63;;;6.30;73.10;;;9.65;50.28;102587.06;4878683;29;20314;-55
2023/03/02 10:05:49;;;;;;;19.57;14.20;;;6.30;73.50;;;9.73;50.27;102585.50;4874089;29;20293;-57
2023/03/02 10:08:19;;;;;;;17.33;12.97;;;6.30;73.60;;;9.82;50.24;102589.16;4879830;29;20215;-57
2023/03/02 10:10:58;;;;;;;20.50;14.43;;;6.40;73.40;;;9.85;50.52;102591.56;4879501;29;20211;-57
2023/03/02 10:13:34;;;;;;;16.17;13.17;;;6.40;73.50;;;9.91;50.00;102583.19;4873884;29;20670;-58
2023/03/02 10:16:15;;;;;;;17.37;12.63;;;6.50;74.00;;;9.96;50.50;102588.91;4864285;29;20250;-54
2023/03/02 10:18:48;;;;;;;16.73;11.57;;;6.60;73.50;;;10.05;50.00;102590.78;4878837;29;20665;-56
2023/03/02 10:21:23;;;;;;;16.90;12.07;;;6.60;73.10;;;10.13;49.76;102591.00;4876699;29;20203;-57